sensor_id;sensor_type;location;lat;lon;timestamp;P1;durP1;ratioP1;P2;durP2;ratioP2
28335;SDS011;15592;53.656;7.276;2023-07-16T00:01:56;12.95;;;3.45;;
28335;SDS011;15592;53.656;7.276;2023-07-16T00:04:21;8.32;;;3.13;;
28335;SDS011;15592;53.656;7.276;2023-07-16T00:06:47;8.88;;;3.33;;
28335;SDS011;15592;53.656;7.276;2023-07-16T00:09:13;9.45;;;3.55;;
28335;SDS011;15592;53.656;7.276;2023-07-16T00:11:40;11.80;;;3.90;;
28335;SDS011;15592;53.656;7.276;2023-07-16T00:14:05;17.27;;;4.90;;
28335;SDS011;15592;53.656;7.276;2023-07-16T00:16:31;11.73;;;3.53;;
28335;SDS011;15592;53.656;7.276;2023-07-16T00:18:57;9.70;;;3.60;;
28335;SDS011;15592;53.656;7.276;2023-07-16T00:21:23;7.72;;;3.20;;
28335;SDS011;15592;53.656;7.276;2023-07-16T00:23:49;11.00;;;4.15;;
28335;SDS011;15592;53.656;7.276;2023-07-16T00:26:15;12.38;;;3.65;;
28335;SDS011;15592;53.656;7.276;2023-07-16T00:28:41;8.00;;;3.65;;
28335;SDS011;15592;53.656;7.276;2023-07-16T00:31:07;9.65;;;3.47;;
28335;SDS011;15592;53.656;7.276;2023-07-16T00:33:32;9.13;;;3.42;;
28335;SDS011;15592;53.656;7.276;2023-07-16T00:35:58;9.85;;;3.25;;
28335;SDS011;15592;53.656;7.276;2023-07-16T00:38:24;11.35;;;3.35;;
28335;SDS011;15592;53.656;7.276;2023-07-16T00:40:49;10.15;;;3.50;;
28335;SDS011;15592;53.656;7.276;2023-07-16T00:43:15;11.10;;;3.72;;
28335;SDS011;15592;53.656;7.276;2023-07-16T00:45:41;8.77;;;3.60;;
28335;SDS011;15592;53.656;7.276;2023-07-16T00:48:09;11.30;;;3.83;;
28335;SDS011;15592;53.656;7.276;2023-07-16T00:50:36;13.63;;;3.50;;
28335;SDS011;15592;53.656;7.276;2023-07-16T00:53:05;9.65;;;4.22;;
28335;SDS011;15592;53.656;7.276;2023-07-16T00:55:32;7.05;;;3.90;;
28335;SDS011;15592;53.656;7.276;2023-07-16T00:58:03;9.77;;;3.80;;
28335;SDS011;15592;53.656;7.276;2023-07-16T01:00:36;14.15;;;3.50;;
28335;SDS011;15592;53.656;7.276;2023-07-16T01:03:03;9.85;;;3.78;;
28335;SDS011;15592;53.656;7.276;2023-07-16T01:05:45;9.82;;;3.45;;
28335;SDS011;15592;53.656;7.276;2023-07-16T01:08:32;8.43;;;3.03;;
28335;SDS011;15592;53.656;7.276;2023-07-16T01:11:06;6.80;;;3.08;;
28335;SDS011;15592;53.656;7.276;2023-07-16T01:13:32;9.02;;;3.88;;
28335;SDS011;15592;53.656;7.276;2023-07-16T01:15:59;8.93;;;3.38;;
28335;SDS011;15592;53.656;7.276;2023-07-16T01:18:25;9.43;;;3.80;;
28335;SDS011;15592;53.656;7.276;2023-07-16T01:20:50;8.23;;;3.58;;
28335;SDS011;15592;53.656;7.276;2023-07-16T01:26:05;12.20;;;3.80;;
28335;SDS011;15592;53.656;7.276;2023-07-16T01:31:40;10.63;;;3.95;;
28335;SDS011;15592;53.656;7.276;2023-07-16T01:34:06;12.93;;;4.28;;
28335;SDS011;15592;53.656;7.276;2023-07-16T01:36:33;11.30;;;3.80;;
28335;SDS011;15592;53.656;7.276;2023-07-16T01:39:01;15.55;;;4.35;;
28335;SDS011;15592;53.656;7.276;2023-07-16T01:41:27;12.85;;;4.45;;
28335;SDS011;15592;53.656;7.276;2023-07-16T01:43:52;11.75;;;3.83;;
28335;SDS011;15592;53.656;7.276;2023-07-16T01:46:18;12.55;;;4.10;;
28335;SDS011;15592;53.656;7.276;2023-07-16T01:48:44;16.05;;;4.32;;
28335;SDS011;15592;53.656;7.276;2023-07-16T01:51:09;16.73;;;4.20;;
28335;SDS011;15592;53.656;7.276;2023-07-16T01:53:38;11.32;;;4.30;;
28335;SDS011;15592;53.656;7.276;2023-07-16T01:56:05;13.73;;;4.45;;
28335;SDS011;15592;53.656;7.276;2023-07-16T01:58:30;14.85;;;4.22;;
28335;SDS011;15592;53.656;7.276;2023-07-16T02:00:56;12.48;;;4.18;;
28335;SDS011;15592;53.656;7.276;2023-07-16T02:03:22;12.80;;;4.40;;
28335;SDS011;15592;53.656;7.276;2023-07-16T02:05:47;15.05;;;4.93;;
28335;SDS011;15592;53.656;7.276;2023-07-16T02:08:13;13.00;;;4.32;;
28335;SDS011;15592;53.656;7.276;2023-07-16T02:10:39;15.57;;;4.75;;
28335;SDS011;15592;53.656;7.276;2023-07-16T02:13:05;15.80;;;4.85;;
28335;SDS011;15592;53.656;7.276;2023-07-16T02:15:30;15.88;;;5.57;;
28335;SDS011;15592;53.656;7.276;2023-07-16T02:17:56;13.05;;;4.97;;
28335;SDS011;15592;53.656;7.276;2023-07-16T02:20:22;13.10;;;5.03;;
28335;SDS011;15592;53.656;7.276;2023-07-16T02:22:47;11.70;;;5.20;;
28335;SDS011;15592;53.656;7.276;2023-07-16T02:25:13;12.45;;;4.32;;
28335;SDS011;15592;53.656;7.276;2023-07-16T02:27:39;11.10;;;4.20;;
28335;SDS011;15592;53.656;7.276;2023-07-16T02:30:05;15.95;;;5.03;;
28335;SDS011;15592;53.656;7.276;2023-07-16T02:32:31;10.85;;;4.47;;
28335;SDS011;15592;53.656;7.276;2023-07-16T02:34:58;10.13;;;4.75;;
28335;SDS011;15592;53.656;7.276;2023-07-16T02:37:23;10.68;;;4.13;;
28335;SDS011;15592;53.656;7.276;2023-07-16T02:39:49;15.77;;;4.57;;
28335;SDS011;15592;53.656;7.276;2023-07-16T02:42:14;13.27;;;4.38;;
28335;SDS011;15592;53.656;7.276;2023-07-16T02:44:40;10.75;;;3.90;;
28335;SDS011;15592;53.656;7.276;2023-07-16T02:47:10;12.17;;;4.37;;
28335;SDS011;15592;53.656;7.276;2023-07-16T02:49:36;13.45;;;4.13;;
28335;SDS011;15592;53.656;7.276;2023-07-16T02:52:02;8.63;;;3.75;;
28335;SDS011;15592;53.656;7.276;2023-07-16T02:54:28;15.75;;;4.60;;
28335;SDS011;15592;53.656;7.276;2023-07-16T02:56:53;10.85;;;3.80;;
28335;SDS011;15592;53.656;7.276;2023-07-16T02:59:19;9.48;;;3.40;;
28335;SDS011;15592;53.656;7.276;2023-07-16T03:01:45;10.93;;;4.10;;
28335;SDS011;15592;53.656;7.276;2023-07-16T03:04:10;6.53;;;3.60;;
28335;SDS011;15592;53.656;7.276;2023-07-16T03:06:36;12.80;;;3.88;;
28335;SDS011;15592;53.656;7.276;2023-07-16T03:09:02;11.27;;;3.90;;
28335;SDS011;15592;53.656;7.276;2023-07-16T03:11:28;16.13;;;4.20;;
28335;SDS011;15592;53.656;7.276;2023-07-16T03:13:53;8.68;;;3.50;;
28335;SDS011;15592;53.656;7.276;2023-07-16T03:16:19;13.90;;;4.50;;
28335;SDS011;15592;53.656;7.276;2023-07-16T03:18:44;13.90;;;4.65;;
28335;SDS011;15592;53.656;7.276;2023-07-16T03:21:10;10.20;;;4.10;;
28335;SDS011;15592;53.656;7.276;2023-07-16T03:23:36;9.35;;;4.38;;
28335;SDS011;15592;53.656;7.276;2023-07-16T03:26:02;11.07;;;4.70;;
28335;SDS011;15592;53.656;7.276;2023-07-16T03:28:28;9.80;;;4.38;;
28335;SDS011;15592;53.656;7.276;2023-07-16T03:30:54;13.50;;;4.95;;
28335;SDS011;15592;53.656;7.276;2023-07-16T03:33:19;11.23;;;4.38;;
28335;SDS011;15592;53.656;7.276;2023-07-16T03:35:46;12.50;;;4.85;;
28335;SDS011;15592;53.656;7.276;2023-07-16T03:38:13;8.75;;;4.45;;
28335;SDS011;15592;53.656;7.276;2023-07-16T03:40:39;11.95;;;5.05;;
28335;SDS011;15592;53.656;7.276;2023-07-16T03:43:05;13.43;;;5.13;;
28335;SDS011;15592;53.656;7.276;2023-07-16T03:45:30;9.25;;;4.80;;
28335;SDS011;15592;53.656;7.276;2023-07-16T03:47:56;16.00;;;5.60;;
28335;SDS011;15592;53.656;7.276;2023-07-16T03:50:22;10.10;;;4.95;;
28335;SDS011;15592;53.656;7.276;2023-07-16T03:52:47;9.02;;;5.05;;
28335;SDS011;15592;53.656;7.276;2023-07-16T03:55:13;10.18;;;4.72;;
28335;SDS011;15592;53.656;7.276;2023-07-16T03:57:40;13.25;;;5.80;;
28335;SDS011;15592;53.656;7.276;2023-07-16T04:00:06;13.20;;;5.65;;
28335;SDS011;15592;53.656;7.276;2023-07-16T04:02:34;10.13;;;4.85;;
28335;SDS011;15592;53.656;7.276;2023-07-16T04:05:00;10.02;;;5.10;;
28335;SDS011;15592;53.656;7.276;2023-07-16T04:07:26;13.40;;;6.10;;
28335;SDS011;15592;53.656;7.276;2023-07-16T04:09:51;10.85;;;5.43;;
28335;SDS011;15592;53.656;7.276;2023-07-16T04:12:17;16.42;;;5.57;;
28335;SDS011;15592;53.656;7.276;2023-07-16T04:14:43;13.35;;;5.55;;
28335;SDS011;15592;53.656;7.276;2023-07-16T04:17:08;16.08;;;6.15;;
28335;SDS011;15592;53.656;7.276;2023-07-16T04:19:34;12.07;;;5.45;;
28335;SDS011;15592;53.656;7.276;2023-07-16T04:22:00;18.02;;;5.88;;
28335;SDS011;15592;53.656;7.276;2023-07-16T04:24:26;12.68;;;5.18;;
28335;SDS011;15592;53.656;7.276;2023-07-16T04:26:52;17.05;;;5.72;;
28335;SDS011;15592;53.656;7.276;2023-07-16T04:29:18;10.93;;;5.18;;
28335;SDS011;15592;53.656;7.276;2023-07-16T04:31:44;11.20;;;5.55;;
28335;SDS011;15592;53.656;7.276;2023-07-16T04:34:10;16.95;;;5.75;;
28335;SDS011;15592;53.656;7.276;2023-07-16T04:36:35;14.52;;;5.47;;
28335;SDS011;15592;53.656;7.276;2023-07-16T04:39:01;12.70;;;5.22;;
28335;SDS011;15592;53.656;7.276;2023-07-16T04:41:27;15.30;;;5.22;;
28335;SDS011;15592;53.656;7.276;2023-07-16T04:43:52;12.60;;;5.40;;
28335;SDS011;15592;53.656;7.276;2023-07-16T04:46:18;14.43;;;5.65;;
28335;SDS011;15592;53.656;7.276;2023-07-16T04:48:44;15.65;;;5.70;;
28335;SDS011;15592;53.656;7.276;2023-07-16T04:51:10;13.23;;;6.20;;
28335;SDS011;15592;53.656;7.276;2023-07-16T04:53:35;16.08;;;5.93;;
28335;SDS011;15592;53.656;7.276;2023-07-16T04:56:01;14.68;;;6.20;;
28335;SDS011;15592;53.656;7.276;2023-07-16T04:58:26;10.73;;;5.65;;
28335;SDS011;15592;53.656;7.276;2023-07-16T05:00:52;14.57;;;6.05;;
28335;SDS011;15592;53.656;7.276;2023-07-16T05:03:18;15.50;;;6.43;;
28335;SDS011;15592;53.656;7.276;2023-07-16T05:05:43;12.55;;;6.03;;
28335;SDS011;15592;53.656;7.276;2023-07-16T05:08:09;10.40;;;6.05;;
28335;SDS011;15592;53.656;7.276;2023-07-16T05:10:34;13.15;;;6.43;;
28335;SDS011;15592;53.656;7.276;2023-07-16T05:13:00;15.27;;;6.15;;
28335;SDS011;15592;53.656;7.276;2023-07-16T05:15:28;14.55;;;5.82;;
28335;SDS011;15592;53.656;7.276;2023-07-16T05:17:54;16.73;;;6.38;;
28335;SDS011;15592;53.656;7.276;2023-07-16T05:20:22;12.55;;;5.93;;
28335;SDS011;15592;53.656;7.276;2023-07-16T05:22:48;15.68;;;6.30;;
28335;SDS011;15592;53.656;7.276;2023-07-16T05:25:13;13.93;;;6.30;;
28335;SDS011;15592;53.656;7.276;2023-07-16T05:27:39;14.32;;;6.07;;
28335;SDS011;15592;53.656;7.276;2023-07-16T05:30:05;13.40;;;5.75;;
28335;SDS011;15592;53.656;7.276;2023-07-16T05:32:31;14.32;;;6.43;;
28335;SDS011;15592;53.656;7.276;2023-07-16T05:34:57;13.35;;;6.50;;
28335;SDS011;15592;53.656;7.276;2023-07-16T05:37:22;14.52;;;7.20;;
28335;SDS011;15592;53.656;7.276;2023-07-16T05:39:48;14.30;;;7.10;;
28335;SDS011;15592;53.656;7.276;2023-07-16T05:42:14;13.73;;;6.88;;
28335;SDS011;15592;53.656;7.276;2023-07-16T05:44:39;17.13;;;7.22;;
28335;SDS011;15592;53.656;7.276;2023-07-16T05:47:06;17.10;;;7.03;;
28335;SDS011;15592;53.656;7.276;2023-07-16T05:49:33;13.68;;;7.45;;
28335;SDS011;15592;53.656;7.276;2023-07-16T05:51:58;20.05;;;7.53;;
28335;SDS011;15592;53.656;7.276;2023-07-16T05:54:24;16.23;;;7.28;;
28335;SDS011;15592;53.656;7.276;2023-07-16T05:56:50;17.85;;;6.65;;
28335;SDS011;15592;53.656;7.276;2023-07-16T05:59:15;16.13;;;6.80;;
28335;SDS011;15592;53.656;7.276;2023-07-16T06:01:41;16.90;;;7.55;;
28335;SDS011;15592;53.656;7.276;2023-07-16T06:04:06;15.23;;;6.78;;
28335;SDS011;15592;53.656;7.276;2023-07-16T06:06:32;20.63;;;7.38;;
28335;SDS011;15592;53.656;7.276;2023-07-16T06:08:58;12.88;;;6.95;;
28335;SDS011;15592;53.656;7.276;2023-07-16T06:11:23;16.27;;;7.03;;
28335;SDS011;15592;53.656;7.276;2023-07-16T06:13:49;14.50;;;7.15;;
28335;SDS011;15592;53.656;7.276;2023-07-16T06:16:14;14.95;;;7.03;;
28335;SDS011;15592;53.656;7.276;2023-07-16T06:18:40;13.63;;;6.80;;
28335;SDS011;15592;53.656;7.276;2023-07-16T06:21:06;16.08;;;6.65;;
28335;SDS011;15592;53.656;7.276;2023-07-16T06:23:31;16.10;;;6.38;;
28335;SDS011;15592;53.656;7.276;2023-07-16T06:25:57;14.85;;;6.47;;
28335;SDS011;15592;53.656;7.276;2023-07-16T06:28:23;12.75;;;6.28;;
28335;SDS011;15592;53.656;7.276;2023-07-16T06:30:49;16.50;;;6.70;;
28335;SDS011;15592;53.656;7.276;2023-07-16T06:33:17;15.63;;;6.35;;
28335;SDS011;15592;53.656;7.276;2023-07-16T06:35:46;15.30;;;6.35;;
28335;SDS011;15592;53.656;7.276;2023-07-16T06:38:13;17.55;;;7.13;;
28335;SDS011;15592;53.656;7.276;2023-07-16T06:40:39;12.80;;;5.47;;
28335;SDS011;15592;53.656;7.276;2023-07-16T06:43:10;13.45;;;5.88;;
28335;SDS011;15592;53.656;7.276;2023-07-16T06:45:36;12.52;;;5.35;;
28335;SDS011;15592;53.656;7.276;2023-07-16T06:48:01;15.18;;;6.32;;
28335;SDS011;15592;53.656;7.276;2023-07-16T06:50:27;15.00;;;5.95;;
28335;SDS011;15592;53.656;7.276;2023-07-16T06:52:53;13.68;;;6.15;;
28335;SDS011;15592;53.656;7.276;2023-07-16T06:55:18;11.73;;;5.38;;
28335;SDS011;15592;53.656;7.276;2023-07-16T06:57:44;14.52;;;5.38;;
28335;SDS011;15592;53.656;7.276;2023-07-16T07:00:09;12.68;;;5.28;;
28335;SDS011;15592;53.656;7.276;2023-07-16T07:02:36;11.45;;;5.82;;
28335;SDS011;15592;53.656;7.276;2023-07-16T07:05:02;14.13;;;5.80;;
28335;SDS011;15592;53.656;7.276;2023-07-16T07:07:27;12.63;;;5.47;;
28335;SDS011;15592;53.656;7.276;2023-07-16T07:09:53;12.05;;;5.45;;
28335;SDS011;15592;53.656;7.276;2023-07-16T07:12:19;11.07;;;5.43;;
28335;SDS011;15592;53.656;7.276;2023-07-16T07:14:46;10.48;;;5.00;;
28335;SDS011;15592;53.656;7.276;2023-07-16T07:17:12;11.70;;;5.18;;
28335;SDS011;15592;53.656;7.276;2023-07-16T07:19:37;11.55;;;4.97;;
28335;SDS011;15592;53.656;7.276;2023-07-16T07:22:03;13.13;;;5.88;;
28335;SDS011;15592;53.656;7.276;2023-07-16T07:24:29;15.10;;;5.55;;
28335;SDS011;15592;53.656;7.276;2023-07-16T07:26:54;8.85;;;4.70;;
28335;SDS011;15592;53.656;7.276;2023-07-16T07:29:20;10.77;;;5.10;;
28335;SDS011;15592;53.656;7.276;2023-07-16T07:31:46;11.57;;;5.50;;
28335;SDS011;15592;53.656;7.276;2023-07-16T07:34:11;11.95;;;5.35;;
28335;SDS011;15592;53.656;7.276;2023-07-16T07:36:37;13.55;;;5.05;;
28335;SDS011;15592;53.656;7.276;2023-07-16T07:39:05;10.05;;;5.18;;
28335;SDS011;15592;53.656;7.276;2023-07-16T07:41:31;12.63;;;5.38;;
28335;SDS011;15592;53.656;7.276;2023-07-16T07:43:57;12.45;;;5.20;;
28335;SDS011;15592;53.656;7.276;2023-07-16T07:46:22;10.60;;;5.05;;
28335;SDS011;15592;53.656;7.276;2023-07-16T07:48:48;12.35;;;6.90;;
28335;SDS011;15592;53.656;7.276;2023-07-16T07:51:13;12.18;;;6.25;;
28335;SDS011;15592;53.656;7.276;2023-07-16T07:53:39;17.48;;;6.55;;
28335;SDS011;15592;53.656;7.276;2023-07-16T07:56:05;15.38;;;6.30;;
28335;SDS011;15592;53.656;7.276;2023-07-16T07:58:30;13.82;;;6.10;;
28335;SDS011;15592;53.656;7.276;2023-07-16T08:00:56;14.18;;;6.20;;
28335;SDS011;15592;53.656;7.276;2023-07-16T08:03:22;13.75;;;6.57;;
28335;SDS011;15592;53.656;7.276;2023-07-16T08:05:48;10.98;;;5.35;;
28335;SDS011;15592;53.656;7.276;2023-07-16T08:08:14;11.05;;;5.53;;
28335;SDS011;15592;53.656;7.276;2023-07-16T08:10:40;18.58;;;6.72;;
28335;SDS011;15592;53.656;7.276;2023-07-16T08:13:05;11.70;;;6.35;;
28335;SDS011;15592;53.656;7.276;2023-07-16T08:15:31;18.48;;;5.70;;
28335;SDS011;15592;53.656;7.276;2023-07-16T08:17:57;12.52;;;5.68;;
28335;SDS011;15592;53.656;7.276;2023-07-16T08:20:24;12.95;;;6.30;;
28335;SDS011;15592;53.656;7.276;2023-07-16T08:22:51;16.30;;;6.03;;
28335;SDS011;15592;53.656;7.276;2023-07-16T08:25:16;11.55;;;6.30;;
28335;SDS011;15592;53.656;7.276;2023-07-16T08:27:42;15.35;;;6.03;;
28335;SDS011;15592;53.656;7.276;2023-07-16T08:30:08;13.25;;;5.75;;
28335;SDS011;15592;53.656;7.276;2023-07-16T08:32:33;9.98;;;5.60;;
28335;SDS011;15592;53.656;7.276;2023-07-16T08:34:59;11.38;;;5.63;;
28335;SDS011;15592;53.656;7.276;2023-07-16T08:37:25;14.02;;;6.25;;
28335;SDS011;15592;53.656;7.276;2023-07-16T08:39:53;13.27;;;6.38;;
28335;SDS011;15592;53.656;7.276;2023-07-16T08:42:19;10.95;;;5.55;;
28335;SDS011;15592;53.656;7.276;2023-07-16T08:44:45;11.02;;;5.47;;
28335;SDS011;15592;53.656;7.276;2023-07-16T08:47:13;14.77;;;5.93;;
28335;SDS011;15592;53.656;7.276;2023-07-16T08:49:40;14.18;;;5.85;;
28335;SDS011;15592;53.656;7.276;2023-07-16T08:52:06;13.80;;;6.25;;
28335;SDS011;15592;53.656;7.276;2023-07-16T08:54:32;10.80;;;5.80;;
28335;SDS011;15592;53.656;7.276;2023-07-16T08:56:58;15.98;;;6.30;;
28335;SDS011;15592;53.656;7.276;2023-07-16T08:59:26;13.10;;;5.82;;
28335;SDS011;15592;53.656;7.276;2023-07-16T09:01:52;12.07;;;5.70;;
28335;SDS011;15592;53.656;7.276;2023-07-16T09:04:17;14.63;;;6.03;;
28335;SDS011;15592;53.656;7.276;2023-07-16T09:06:43;17.70;;;5.95;;
28335;SDS011;15592;53.656;7.276;2023-07-16T09:09:30;10.85;;;5.65;;
28335;SDS011;15592;53.656;7.276;2023-07-16T09:11:55;14.90;;;6.18;;
28335;SDS011;15592;53.656;7.276;2023-07-16T09:14:21;12.18;;;6.30;;
28335;SDS011;15592;53.656;7.276;2023-07-16T09:16:47;11.95;;;5.97;;
28335;SDS011;15592;53.656;7.276;2023-07-16T09:19:17;15.02;;;6.53;;
28335;SDS011;15592;53.656;7.276;2023-07-16T09:21:49;12.52;;;6.28;;
28335;SDS011;15592;53.656;7.276;2023-07-16T09:24:16;12.02;;;5.65;;
28335;SDS011;15592;53.656;7.276;2023-07-16T09:26:49;16.00;;;6.10;;
28335;SDS011;15592;53.656;7.276;2023-07-16T09:29:16;7.93;;;5.22;;
28335;SDS011;15592;53.656;7.276;2023-07-16T09:31:52;13.82;;;5.35;;
28335;SDS011;15592;53.656;7.276;2023-07-16T09:34:23;9.88;;;5.45;;
28335;SDS011;15592;53.656;7.276;2023-07-16T09:36:51;13.07;;;5.57;;
28335;SDS011;15592;53.656;7.276;2023-07-16T09:39:17;13.77;;;6.82;;
28335;SDS011;15592;53.656;7.276;2023-07-16T09:41:47;12.87;;;6.63;;
28335;SDS011;15592;53.656;7.276;2023-07-16T09:44:14;13.43;;;6.38;;
28335;SDS011;15592;53.656;7.276;2023-07-16T09:46:40;12.45;;;6.07;;
28335;SDS011;15592;53.656;7.276;2023-07-16T09:49:06;12.23;;;6.35;;
28335;SDS011;15592;53.656;7.276;2023-07-16T09:51:32;11.95;;;6.05;;
28335;SDS011;15592;53.656;7.276;2023-07-16T09:54:04;15.70;;;6.97;;
28335;SDS011;15592;53.656;7.276;2023-07-16T09:56:32;11.32;;;5.80;;
28335;SDS011;15592;53.656;7.276;2023-07-16T09:59:13;11.75;;;6.03;;
28335;SDS011;15592;53.656;7.276;2023-07-16T10:01:41;14.85;;;6.90;;
28335;SDS011;15592;53.656;7.276;2023-07-16T10:04:13;13.98;;;6.22;;
28335;SDS011;15592;53.656;7.276;2023-07-16T10:06:57;10.63;;;5.93;;
28335;SDS011;15592;53.656;7.276;2023-07-16T10:12:11;11.18;;;6.05;;
28335;SDS011;15592;53.656;7.276;2023-07-16T10:14:43;11.30;;;6.13;;
28335;SDS011;15592;53.656;7.276;2023-07-16T10:17:22;17.25;;;6.30;;
28335;SDS011;15592;53.656;7.276;2023-07-16T10:19:58;15.38;;;5.65;;
28335;SDS011;15592;53.656;7.276;2023-07-16T10:22:41;9.63;;;5.50;;
28335;SDS011;15592;53.656;7.276;2023-07-16T10:27:46;12.65;;;4.97;;
28335;SDS011;15592;53.656;7.276;2023-07-16T10:30:12;11.27;;;5.20;;
28335;SDS011;15592;53.656;7.276;2023-07-16T10:32:38;9.95;;;5.70;;
28335;SDS011;15592;53.656;7.276;2023-07-16T10:35:05;12.00;;;5.80;;
28335;SDS011;15592;53.656;7.276;2023-07-16T10:37:33;12.00;;;5.60;;
28335;SDS011;15592;53.656;7.276;2023-07-16T10:39:59;12.18;;;5.30;;
28335;SDS011;15592;53.656;7.276;2023-07-16T10:42:26;11.98;;;6.00;;
28335;SDS011;15592;53.656;7.276;2023-07-16T10:45:02;12.50;;;5.40;;
28335;SDS011;15592;53.656;7.276;2023-07-16T10:47:36;8.80;;;4.93;;
28335;SDS011;15592;53.656;7.276;2023-07-16T10:50:03;11.02;;;5.68;;
28335;SDS011;15592;53.656;7.276;2023-07-16T10:52:34;12.52;;;5.47;;
28335;SDS011;15592;53.656;7.276;2023-07-16T10:55:01;13.30;;;5.47;;
28335;SDS011;15592;53.656;7.276;2023-07-16T10:57:27;11.88;;;5.68;;
28335;SDS011;15592;53.656;7.276;2023-07-16T10:59:54;12.20;;;5.65;;
28335;SDS011;15592;53.656;7.276;2023-07-16T11:02:21;14.05;;;6.60;;
28335;SDS011;15592;53.656;7.276;2023-07-16T11:04:49;13.23;;;6.43;;
28335;SDS011;15592;53.656;7.276;2023-07-16T11:07:18;12.53;;;6.17;;
28335;SDS011;15592;53.656;7.276;2023-07-16T11:09:44;15.50;;;6.05;;
28335;SDS011;15592;53.656;7.276;2023-07-16T11:12:18;11.65;;;4.90;;
28335;SDS011;15592;53.656;7.276;2023-07-16T11:17:14;9.68;;;5.28;;
28335;SDS011;15592;53.656;7.276;2023-07-16T11:19:40;11.57;;;5.53;;
28335;SDS011;15592;53.656;7.276;2023-07-16T11:22:08;10.73;;;5.00;;
28335;SDS011;15592;53.656;7.276;2023-07-16T11:24:50;10.10;;;5.55;;
28335;SDS011;15592;53.656;7.276;2023-07-16T11:27:17;11.15;;;5.20;;
28335;SDS011;15592;53.656;7.276;2023-07-16T11:29:47;9.52;;;5.20;;
28335;SDS011;15592;53.656;7.276;2023-07-16T11:35:22;10.13;;;4.88;;
28335;SDS011;15592;53.656;7.276;2023-07-16T11:37:48;9.50;;;4.80;;
28335;SDS011;15592;53.656;7.276;2023-07-16T11:40:17;8.45;;;4.60;;
28335;SDS011;15592;53.656;7.276;2023-07-16T11:42:44;11.60;;;6.03;;
28335;SDS011;15592;53.656;7.276;2023-07-16T11:45:17;15.25;;;6.10;;
28335;SDS011;15592;53.656;7.276;2023-07-16T11:47:44;12.13;;;6.65;;
28335;SDS011;15592;53.656;7.276;2023-07-16T11:50:10;9.27;;;6.03;;
28335;SDS011;15592;53.656;7.276;2023-07-16T11:52:36;12.90;;;5.38;;
28335;SDS011;15592;53.656;7.276;2023-07-16T11:55:03;13.45;;;6.13;;
28335;SDS011;15592;53.656;7.276;2023-07-16T11:57:29;10.10;;;5.65;;
28335;SDS011;15592;53.656;7.276;2023-07-16T11:59:55;11.30;;;4.97;;
28335;SDS011;15592;53.656;7.276;2023-07-16T12:02:21;9.32;;;5.13;;
28335;SDS011;15592;53.656;7.276;2023-07-16T12:04:47;13.10;;;5.07;;
28335;SDS011;15592;53.656;7.276;2023-07-16T12:07:13;13.38;;;5.88;;
28335;SDS011;15592;53.656;7.276;2023-07-16T12:09:39;14.55;;;4.93;;
28335;SDS011;15592;53.656;7.276;2023-07-16T12:12:05;13.70;;;4.88;;
28335;SDS011;15592;53.656;7.276;2023-07-16T12:14:31;9.68;;;4.78;;
28335;SDS011;15592;53.656;7.276;2023-07-16T12:16:57;10.00;;;5.03;;
28335;SDS011;15592;53.656;7.276;2023-07-16T12:19:23;10.95;;;4.90;;
28335;SDS011;15592;53.656;7.276;2023-07-16T12:21:49;11.75;;;5.28;;
28335;SDS011;15592;53.656;7.276;2023-07-16T12:24:15;10.60;;;4.88;;
28335;SDS011;15592;53.656;7.276;2023-07-16T12:26:41;9.85;;;5.47;;
28335;SDS011;15592;53.656;7.276;2023-07-16T12:29:07;9.32;;;5.25;;
28335;SDS011;15592;53.656;7.276;2023-07-16T12:31:33;10.82;;;5.18;;
28335;SDS011;15592;53.656;7.276;2023-07-16T12:33:59;8.25;;;4.82;;
28335;SDS011;15592;53.656;7.276;2023-07-16T12:36:29;10.95;;;4.93;;
28335;SDS011;15592;53.656;7.276;2023-07-16T12:38:55;8.05;;;4.45;;
28335;SDS011;15592;53.656;7.276;2023-07-16T12:41:21;10.02;;;4.85;;
28335;SDS011;15592;53.656;7.276;2023-07-16T12:43:46;9.68;;;4.95;;
28335;SDS011;15592;53.656;7.276;2023-07-16T12:46:12;8.27;;;4.40;;
28335;SDS011;15592;53.656;7.276;2023-07-16T12:48:38;7.22;;;4.30;;
28335;SDS011;15592;53.656;7.276;2023-07-16T12:51:04;7.53;;;4.25;;
28335;SDS011;15592;53.656;7.276;2023-07-16T12:53:29;8.88;;;4.50;;
28335;SDS011;15592;53.656;7.276;2023-07-16T12:55:55;9.95;;;4.63;;
28335;SDS011;15592;53.656;7.276;2023-07-16T12:58:21;9.35;;;4.78;;
28335;SDS011;15592;53.656;7.276;2023-07-16T13:00:47;8.90;;;4.47;;
28335;SDS011;15592;53.656;7.276;2023-07-16T13:03:13;9.30;;;4.57;;
28335;SDS011;15592;53.656;7.276;2023-07-16T13:05:42;13.70;;;4.88;;
28335;SDS011;15592;53.656;7.276;2023-07-16T13:08:09;7.88;;;4.80;;
28335;SDS011;15592;53.656;7.276;2023-07-16T13:10:35;11.35;;;4.82;;
28335;SDS011;15592;53.656;7.276;2023-07-16T13:13:01;13.73;;;5.70;;
28335;SDS011;15592;53.656;7.276;2023-07-16T13:15:28;8.75;;;5.53;;
28335;SDS011;15592;53.656;7.276;2023-07-16T13:17:54;12.60;;;5.78;;
28335;SDS011;15592;53.656;7.276;2023-07-16T13:20:20;14.18;;;6.40;;
28335;SDS011;15592;53.656;7.276;2023-07-16T13:22:46;9.18;;;5.10;;
28335;SDS011;15592;53.656;7.276;2023-07-16T13:25:12;10.98;;;5.60;;
28335;SDS011;15592;53.656;7.276;2023-07-16T13:27:37;12.45;;;5.25;;
28335;SDS011;15592;53.656;7.276;2023-07-16T13:30:03;9.82;;;5.68;;
28335;SDS011;15592;53.656;7.276;2023-07-16T13:32:29;9.43;;;4.97;;
28335;SDS011;15592;53.656;7.276;2023-07-16T13:34:55;14.63;;;6.13;;
28335;SDS011;15592;53.656;7.276;2023-07-16T13:37:20;11.98;;;5.75;;
28335;SDS011;15592;53.656;7.276;2023-07-16T13:39:46;10.50;;;6.10;;
28335;SDS011;15592;53.656;7.276;2023-07-16T13:42:11;13.43;;;5.13;;
28335;SDS011;15592;53.656;7.276;2023-07-16T13:44:37;10.93;;;5.20;;
28335;SDS011;15592;53.656;7.276;2023-07-16T13:47:03;9.95;;;5.30;;
28335;SDS011;15592;53.656;7.276;2023-07-16T13:49:29;14.32;;;5.43;;
28335;SDS011;15592;53.656;7.276;2023-07-16T13:51:55;8.82;;;5.35;;
28335;SDS011;15592;53.656;7.276;2023-07-16T13:54:21;12.02;;;5.18;;
28335;SDS011;15592;53.656;7.276;2023-07-16T13:56:47;10.15;;;5.38;;
28335;SDS011;15592;53.656;7.276;2023-07-16T13:59:14;9.68;;;5.72;;
28335;SDS011;15592;53.656;7.276;2023-07-16T14:01:39;12.25;;;6.15;;
28335;SDS011;15592;53.656;7.276;2023-07-16T14:04:05;10.18;;;5.55;;
28335;SDS011;15592;53.656;7.276;2023-07-16T14:06:32;11.25;;;5.40;;
28335;SDS011;15592;53.656;7.276;2023-07-16T14:08:57;16.27;;;5.90;;
28335;SDS011;15592;53.656;7.276;2023-07-16T14:11:24;13.60;;;4.38;;
28335;SDS011;15592;53.656;7.276;2023-07-16T14:13:49;11.25;;;4.53;;
28335;SDS011;15592;53.656;7.276;2023-07-16T14:16:19;13.35;;;4.90;;
28335;SDS011;15592;53.656;7.276;2023-07-16T14:18:49;13.73;;;5.28;;
28335;SDS011;15592;53.656;7.276;2023-07-16T14:21:17;15.23;;;4.95;;
28335;SDS011;15592;53.656;7.276;2023-07-16T14:23:43;17.27;;;5.80;;
28335;SDS011;15592;53.656;7.276;2023-07-16T14:26:08;15.60;;;5.28;;
28335;SDS011;15592;53.656;7.276;2023-07-16T14:28:34;15.90;;;5.32;;
28335;SDS011;15592;53.656;7.276;2023-07-16T14:31:00;12.85;;;5.28;;
28335;SDS011;15592;53.656;7.276;2023-07-16T14:33:25;14.60;;;5.18;;
28335;SDS011;15592;53.656;7.276;2023-07-16T14:35:51;10.15;;;4.82;;
28335;SDS011;15592;53.656;7.276;2023-07-16T14:38:16;9.63;;;3.92;;
28335;SDS011;15592;53.656;7.276;2023-07-16T14:40:42;13.25;;;4.78;;
28335;SDS011;15592;53.656;7.276;2023-07-16T14:43:08;11.43;;;4.47;;
28335;SDS011;15592;53.656;7.276;2023-07-16T14:45:34;10.00;;;3.58;;
28335;SDS011;15592;53.656;7.276;2023-07-16T14:48:01;10.40;;;3.40;;
28335;SDS011;15592;53.656;7.276;2023-07-16T14:50:27;10.27;;;3.90;;